Time;durP1;ratioP1;P1;durP2;ratioP2;P2;SDS_P1;SDS_P2;PMS_P1;PMS_P2;Temp;Humidity;BMP_temperature;BMP_pressure;BME280_temperature;BME280_humidity;BME280_pressure;Samples;Min_cycle;Max_cycle;Signal;HPM_P1;HPM_P2
2021/09/02 00:01:39;;;;;;;12.13;6.22;;;;;;;11.96;99.84;98910.34;4957440;28;20046;-64
2021/09/02 00:04:06;;;;;;;9.52;6.03;;;;;;;11.71;100.00;98913.72;4958428;28;20118;-62
2021/09/02 00:06:31;;;;;;;10.05;6.68;;;;;;;11.88;100.00;98912.31;4955291;28;20038;-64
2021/09/02 00:08:56;;;;;;;9.48;6.20;;;;;;;12.35;96.88;98915.16;4957606;28;20046;-63
2021/09/02 00:11:22;;;;;;;13.52;7.57;;;;;;;11.46;100.00;98915.34;4958495;28;20042;-64
2021/09/02 00:13:47;;;;;;;11.30;7.20;;;;;;;11.73;99.40;98911.91;4959222;28;20062;-64
2021/09/02 00:16:13;;;;;;;11.25;6.95;;;;;;;11.93;98.13;98903.47;4959219;28;20074;-62
2021/09/02 00:18:38;;;;;;;9.57;6.43;;;;;;;12.25;98.22;98906.78;4961071;28;20041;-64
2021/09/02 00:21:03;;;;;;;11.27;7.15;;;;;;;12.00;97.34;98906.72;4956770;28;20572;-61
2021/09/02 00:23:29;;;;;;;14.73;7.95;;;;;;;11.76;98.97;98903.09;4956916;28;20010;-61
2021/09/02 00:25:54;;;;;;;11.85;6.85;;;;;;;11.80;99.64;98906.47;4957591;28;20050;-61
2021/09/02 00:28:20;;;;;;;16.85;7.80;;;;;;;11.83;99.88;98903.78;4957607;28;20030;-64
2021/09/02 00:30:46;;;;;;;11.18;7.60;;;;;;;11.69;100.00;98907.69;4958989;28;20070;-61
2021/09/02 00:33:16;;;;;;;19.30;7.55;;;;;;;11.70;100.00;98903.31;4955468;28;20027;-64
2021/09/02 00:35:41;;;;;;;13.98;7.90;;;;;;;11.84;98.73;98893.28;4957721;28;20530;-60
2021/09/02 00:38:07;;;;;;;13.52;7.85;;;;;;;11.93;98.64;98895.63;4960075;28;20044;-61
2021/09/02 00:40:32;;;;;;;12.45;7.38;;;;;;;12.02;98.61;98899.72;4961258;28;20027;-63
2021/09/02 00:42:57;;;;;;;10.20;6.32;;;;;;;12.18;98.95;98904.41;4959522;28;20034;-65
2021/09/02 00:45:23;;;;;;;11.18;6.40;;;;;;;12.05;100.00;98903.97;4959383;28;20522;-64
2021/09/02 00:47:48;;;;;;;14.85;7.82;;;;;;;12.01;98.13;98894.53;4957831;28;20480;-63
2021/09/02 00:50:13;;;;;;;17.90;7.50;;;;;;;12.01;98.12;98902.38;4955672;28;20666;-61
2021/09/02 00:52:39;;;;;;;12.80;6.90;;;;;;;12.18;98.93;98907.88;4956200;28;20487;-62
2021/09/02 00:55:08;;;;;;;21.48;7.50;;;;;;;12.01;98.63;98902.38;4958428;28;20038;-62
2021/09/02 00:57:34;;;;;;;12.38;7.05;;;;;;;11.94;97.09;98906.94;4956962;28;20436;-62
2021/09/02 01:00:12;;;;;;;13.00;6.72;;;;;;;12.04;97.78;98903.13;4958647;28;20058;-62
2021/09/02 01:02:40;;;;;;;11.68;6.45;;;;;;;12.08;97.85;98904.72;4959779;28;20043;-61
2021/09/02 01:05:09;;;;;;;12.38;7.15;;;;;;;11.89;99.09;98891.38;4961885;28;20061;-63
2021/09/02 01:07:35;;;;;;;11.43;7.15;;;;;;;12.01;95.98;98897.97;4959922;28;20031;-63
2021/09/02 01:10:06;;;;;;;13.48;6.80;;;;;;;12.06;95.61;98900.47;4960622;28;20030;-61
2021/09/02 01:12:40;;;;;;;15.45;7.68;;;;;;;11.86;96.51;98901.91;4963613;28;20039;-63
2021/09/02 01:15:16;;;;;;;14.63;8.38;;;;;;;11.41;100.00;98906.78;4965856;28;20504;-62
2021/09/02 01:17:51;;;;;;;13.95;7.57;;;;;;;11.08;100.00;98899.91;4963074;28;20054;-62
2021/09/02 01:20:18;;;;;;;13.13;7.95;;;;;;;11.51;100.00;98900.41;4960372;28;20066;-63
2021/09/02 01:22:49;;;;;;;13.70;7.07;;;;;;;11.64;100.00;98893.91;4962590;28;20038;-61
2021/09/02 01:25:21;;;;;;;14.07;8.25;;;;;;;11.58;99.83;98899.31;4963330;28;20043;-61
2021/09/02 01:27:50;;;;;;;13.60;7.90;;;;;;;11.42;100.00;98887.63;4957057;28;20022;-62
2021/09/02 01:30:17;;;;;;;14.65;7.68;;;;;;;11.69;99.08;98889.38;4961875;28;20035;-64
2021/09/02 01:32:45;;;;;;;22.60;8.68;;;;;;;11.54;100.00;98885.50;4960076;28;20027;-63
2021/09/02 01:35:12;;;;;;;13.73;7.43;;;;;;;11.45;100.00;98891.00;4957931;28;20030;-61
2021/09/02 01:37:42;;;;;;;14.25;7.20;;;;;;;11.79;100.00;98896.94;4959885;28;20125;-61
2021/09/02 01:40:15;;;;;;;11.63;7.15;;;;;;;11.72;100.00;98894.50;4959727;28;20027;-63
2021/09/02 01:42:41;;;;;;;16.77;8.40;;;;;;;11.67;98.35;98888.59;4960785;28;20034;-60
2021/09/02 01:45:07;;;;;;;13.25;6.70;;;;;;;11.61;99.00;98891.38;4962771;28;20076;-61
2021/09/02 01:47:32;;;;;;;12.60;8.02;;;;;;;11.75;97.93;98897.03;4962017;28;20120;-62
2021/09/02 01:50:13;;;;;;;11.20;6.68;;;;;;;11.63;99.42;98902.63;4957483;28;20124;-62
2021/09/02 01:52:39;;;;;;;14.05;7.70;;;;;;;11.55;100.00;98902.03;4958538;28;20480;-62
2021/09/02 01:55:08;;;;;;;13.13;7.30;;;;;;;11.58;98.92;98896.72;4956473;28;20042;-62
2021/09/02 01:57:34;;;;;;;15.90;7.70;;;;;;;11.48;99.01;98908.31;4956620;28;20142;-62
2021/09/02 02:00:00;;;;;;;14.05;7.10;;;;;;;11.52;99.52;98899.47;4959492;28;20027;-61
2021/09/02 02:02:25;;;;;;;17.27;8.27;;;;;;;11.37;99.31;98899.03;4956864;28;20039;-62
2021/09/02 02:04:50;;;;;;;14.43;7.53;;;;;;;11.46;98.62;98895.31;4956573;28;20065;-60
2021/09/02 02:07:16;;;;;;;13.95;7.35;;;;;;;11.88;96.63;98894.03;4958769;28;20046;-63
2021/09/02 02:09:42;;;;;;;14.65;7.72;;;;;;;11.40;99.07;98892.03;4957093;28;20070;-61
2021/09/02 02:12:07;;;;;;;11.65;6.88;;;;;;;11.53;98.15;98894.22;4958953;28;20085;-61
2021/09/02 02:14:33;;;;;;;12.05;7.20;;;;;;;11.67;99.08;98895.53;4959396;28;20400;-63
2021/09/02 02:16:59;;;;;;;11.65;7.22;;;;;;;11.64;98.95;98888.66;4957416;28;20034;-61
2021/09/02 02:19:24;;;;;;;11.02;7.35;;;;;;;11.66;97.95;98896.47;4957046;28;20079;-63
2021/09/02 02:21:49;;;;;;;16.38;8.32;;;;;;;11.47;97.76;98890.94;4959647;28;20105;-63
2021/09/02 02:24:15;;;;;;;14.05;7.45;;;;;;;11.55;99.08;98888.94;4960309;28;20042;-61
2021/09/02 02:26:40;;;;;;;17.33;7.75;;;;;;;11.29;99.70;98887.97;4957587;28;20043;-63
2021/09/02 02:29:06;;;;;;;13.20;7.50;;;;;;;11.54;98.99;98888.09;4960597;28;20027;-62
2021/09/02 02:31:31;;;;;;;13.95;7.07;;;;;;;11.27;99.75;98888.94;4960049;28;20119;-61
2021/09/02 02:33:56;;;;;;;14.77;7.72;;;;;;;11.21;99.45;98883.88;4958042;28;20136;-60
2021/09/02 02:36:22;;;;;;;12.48;7.32;;;;;;;11.11;100.00;98889.38;4957079;28;20039;-62
2021/09/02 02:38:47;;;;;;;14.52;7.00;;;;;;;11.44;100.00;98883.19;4958965;28;20062;-63
2021/09/02 02:41:12;;;;;;;13.52;7.82;;;;;;;11.11;100.00;98883.31;4959693;28;20130;-62
2021/09/02 02:43:38;;;;;;;12.65;7.88;;;;;;;11.22;100.00;98873.38;4962473;28;20090;-61
2021/09/02 02:46:03;;;;;;;12.73;7.15;;;;;;;11.53;99.82;98868.09;4960083;28;20157;-64
2021/09/02 02:48:29;;;;;;;14.18;7.30;;;;;;;11.43;99.26;98873.63;4911029;28;1453672;-60
2021/09/02 02:50:54;;;;;;;11.75;6.93;;;;;;;11.44;99.79;98883.19;4962518;28;20034;-62
2021/09/02 02:53:19;;;;;;;14.95;7.65;;;;;;;11.35;99.96;98876.50;4959157;28;20026;-62
2021/09/02 02:55:44;;;;;;;12.07;7.00;;;;;;;11.32;100.00;98876.56;4958743;28;20050;-62
2021/09/02 02:58:10;;;;;;;14.15;7.18;;;;;;;11.36;99.81;98879.06;4960011;28;20031;-62
2021/09/02 03:00:35;;;;;;;14.15;7.40;;;;;;;11.26;99.53;98876.78;4959713;28;20054;-62
2021/09/02 03:03:00;;;;;;;10.00;6.75;;;;;;;11.22;98.62;98872.53;4961808;28;20196;-61
2021/09/02 03:05:26;;;;;;;11.88;7.30;;;;;;;11.25;98.89;98875.91;4956629;28;20429;-63
2021/09/02 03:07:51;;;;;;;11.15;6.88;;;;;;;11.16;100.00;98876.19;4962599;28;20091;-61
2021/09/02 03:10:17;;;;;;;15.07;7.68;;;;;;;11.08;98.47;98867.72;4960431;28;20455;-61
2021/09/02 03:12:42;;;;;;;11.18;6.95;;;;;;;11.33;98.49;98878.31;4956864;28;20583;-63
2021/09/02 03:15:08;;;;;;;12.02;7.07;;;;;;;11.30;98.94;98874.03;4959829;28;20031;-61
2021/09/02 03:17:34;;;;;;;12.60;7.15;;;;;;;11.18;99.25;98874.38;4960210;28;20031;-63
2021/09/02 03:20:00;;;;;;;10.38;6.50;;;;;;;11.15;99.42;98872.69;4960263;28;20034;-61
2021/09/02 03:22:25;;;;;;;13.75;6.40;;;;;;;11.35;97.20;98872.13;4959319;28;20050;-62
2021/09/02 03:24:51;;;;;;;11.23;6.95;;;;;;;11.24;98.07;98874.19;4959965;28;20027;-62
2021/09/02 03:27:16;;;;;;;12.25;7.40;;;;;;;11.12;97.88;98866.72;4959653;28;20058;-61
2021/09/02 03:29:42;;;;;;;12.20;7.00;;;;;;;11.42;97.92;98874.56;4960489;28;20582;-63
2021/09/02 03:32:07;;;;;;;12.23;7.10;;;;;;;11.25;97.48;98867.22;4959614;28;20065;-62
2021/09/02 03:34:33;;;;;;;10.07;6.22;;;;;;;11.63;97.65;98871.25;4958219;28;20720;-61
2021/09/02 03:36:58;;;;;;;14.55;7.32;;;;;;;10.90;98.39;98872.56;4959695;28;20046;-63
2021/09/02 03:39:23;;;;;;;11.55;6.90;;;;;;;11.05;99.79;98873.03;4959271;28;20487;-61
2021/09/02 03:41:49;;;;;;;10.95;7.00;;;;;;;11.00;99.46;98874.00;4956510;28;20042;-62
2021/09/02 03:44:14;;;;;;;11.85;6.55;;;;;;;11.03;100.00;98874.81;4955844;28;20018;-64
2021/09/02 03:46:39;;;;;;;13.07;6.97;;;;;;;10.95;99.28;98875.91;4958098;28;20064;-62
2021/09/02 03:49:06;;;;;;;10.90;6.25;;;;;;;11.07;99.54;98881.69;4959337;28;20135;-61
2021/09/02 03:51:31;;;;;;;10.77;6.50;;;;;;;11.27;98.36;98879.34;4959032;28;20126;-61
2021/09/02 03:53:56;;;;;;;12.00;7.20;;;;;;;10.72;100.00;98880.94;4958714;28;20419;-62
2021/09/02 03:56:22;;;;;;;11.70;6.43;;;;;;;11.16;98.32;98877.03;4954508;28;20039;-64
2021/09/02 03:58:47;;;;;;;11.95;6.18;;;;;;;11.26;96.54;98880.22;4955786;28;20492;-60
2021/09/02 04:01:13;;;;;;;10.88;6.30;;;;;;;11.24;98.86;98879.41;4957811;28;20039;-62
2021/09/02 04:03:38;;;;;;;9.70;6.30;;;;;;;11.19;98.69;98879.56;4955687;28;20773;-63
2021/09/02 04:06:04;;;;;;;9.57;6.22;;;;;;;11.25;98.40;98880.28;4955622;28;20123;-60
2021/09/02 04:08:29;;;;;;;11.57;6.80;;;;;;;11.24;96.58;98879.41;4954875;28;20169;-61
2021/09/02 04:10:54;;;;;;;12.05;6.65;;;;;;;11.08;96.98;98886.00;4953120;28;20042;-61
2021/09/02 04:13:20;;;;;;;12.43;7.22;;;;;;;10.83;98.24;98881.47;4955412;28;20106;-61
2021/09/02 04:15:45;;;;;;;10.75;6.70;;;;;;;11.15;96.43;98880.53;4956204;28;20492;-60
2021/09/02 04:18:11;;;;;;;9.35;5.93;;;;;;;11.19;96.41;98892.63;4952561;28;20026;-61
2021/09/02 04:20:36;;;;;;;10.48;6.60;;;;;;;11.15;97.96;98890.13;4956635;28;20047;-64
2021/09/02 04:23:02;;;;;;;10.93;6.18;;;;;;;11.19;97.42;98887.41;4958364;28;20064;-63
2021/09/02 04:25:27;;;;;;;12.98;6.43;;;;;;;10.96;97.69;98885.44;4955858;28;20038;-63
2021/09/02 04:27:53;;;;;;;14.88;7.40;;;;;;;10.69;98.11;98886.22;4957227;28;20121;-62
2021/09/02 04:30:18;;;;;;;15.13;7.32;;;;;;;10.61;97.82;98887.28;4955826;28;20026;-63
2021/09/02 04:32:44;;;;;;;11.63;7.20;;;;;;;10.56;99.45;98896.13;4956458;28;20567;-61
2021/09/02 04:35:10;;;;;;;10.95;6.75;;;;;;;11.12;95.68;98895.44;4956477;28;20031;-62
2021/09/02 04:37:43;;;;;;;11.55;6.72;;;;;;;10.88;96.76;98892.66;4955926;28;20102;-63
2021/09/02 04:40:09;;;;;;;14.93;6.60;;;;;;;10.90;96.52;98890.84;4956982;28;20038;-63
2021/09/02 04:42:35;;;;;;;11.02;6.53;;;;;;;10.99;97.18;98893.19;4959695;28;20034;-63
2021/09/02 04:45:02;;;;;;;12.13;6.32;;;;;;;11.14;99.28;98893.66;4957945;28;20029;-63
2021/09/02 04:47:27;;;;;;;12.32;7.15;;;;;;;10.84;98.35;98895.38;4958233;28;20661;-63
2021/09/02 04:49:53;;;;;;;14.50;6.47;;;;;;;10.85;99.40;98902.31;4959197;28;20034;-60
2021/09/02 04:52:19;;;;;;;18.40;7.45;;;;;;;10.55;99.34;98899.63;4956184;28;20043;-62
2021/09/02 04:54:44;;;;;;;10.32;6.30;;;;;;;11.24;98.96;98889.88;4956950;28;20046;-63
2021/09/02 04:57:09;;;;;;;12.95;7.30;;;;;;;11.02;97.89;98899.22;4954948;28;20046;-62
2021/09/02 04:59:35;;;;;;;11.40;7.35;;;;;;;10.71;100.00;98895.69;4957394;28;20112;-61
2021/09/02 05:02:00;;;;;;;12.90;7.07;;;;;;;10.98;98.38;98895.84;4952550;28;20420;-61
2021/09/02 05:04:26;;;;;;;11.57;6.68;;;;;;;11.13;97.31;98898.00;4958331;28;20026;-62
2021/09/02 05:06:51;;;;;;;11.95;7.05;;;;;;;11.21;98.48;98900.41;4959194;28;20100;-60
2021/09/02 05:09:16;;;;;;;12.52;6.90;;;;;;;11.42;95.58;98904.16;4958487;28;20122;-61
2021/09/02 05:11:42;;;;;;;13.02;6.40;;;;;;;11.73;96.05;98904.06;4959240;28;20134;-62
2021/09/02 05:14:07;;;;;;;10.02;6.20;;;;;;;11.89;95.80;98900.94;4961931;28;20408;-63
2021/09/02 05:16:32;;;;;;;11.02;6.63;;;;;;;11.32;96.45;98903.56;4961771;28;20036;-62
2021/09/02 05:18:58;;;;;;;14.05;7.05;;;;;;;11.48;96.76;98908.31;4962492;28;20027;-62
2021/09/02 05:21:23;;;;;;;11.00;6.35;;;;;;;12.28;100.00;98911.91;4961041;28;20483;-61
2021/09/02 05:23:48;;;;;;;10.48;6.53;;;;;;;12.47;94.54;98896.44;4958930;28;20085;-63
2021/09/02 05:26:14;;;;;;;11.95;6.90;;;;;;;13.00;94.23;98902.47;4957121;28;20043;-64
2021/09/02 05:28:39;;;;;;;18.40;7.70;;;;;;;13.68;93.00;98899.03;4962445;28;20038;-62
2021/09/02 05:31:05;;;;;;;13.30;6.60;;;;;;;13.73;94.10;98900.59;4959184;28;20046;-63
2021/09/02 05:33:30;;;;;;;13.23;6.10;;;;;;;15.84;87.86;98888.81;4962326;28;20571;-63
2021/09/02 05:35:55;;;;;;;9.30;5.80;;;;;;;16.56;89.75;98893.16;4960585;28;20047;-62
2021/09/02 05:38:21;;;;;;;10.18;5.72;;;;;;;16.08;86.40;98899.94;4962117;28;20089;-63
2021/09/02 05:40:46;;;;;;;11.60;6.70;;;;;;;16.63;81.77;98899.78;4959255;28;20526;-62
2021/09/02 05:43:11;;;;;;;12.23;5.85;;;;;;;15.88;77.63;98896.50;4962439;28;20112;-61
2021/09/02 05:45:37;;;;;;;9.00;5.82;;;;;;;15.49;77.22;98900.06;4963081;28;20094;-62
2021/09/02 05:48:03;;;;;;;13.35;6.88;;;;;;;15.39;77.46;98899.63;4962585;28;20147;-61
2021/09/02 05:50:29;;;;;;;15.95;5.70;;;;;;;14.65;81.50;98908.19;4962696;28;20098;-63
2021/09/02 05:52:54;;;;;;;10.18;6.10;;;;;;;14.89;81.25;98904.53;4964604;28;20038;-62
2021/09/02 05:55:20;;;;;;;11.23;5.82;;;;;;;14.46;81.79;98908.09;4963153;28;20031;-61
2021/09/02 05:57:46;;;;;;;10.88;6.13;;;;;;;14.73;82.80;98912.25;4962569;28;20097;-64
2021/09/02 06:00:12;;;;;;;11.93;6.20;;;;;;;14.63;82.42;98909.16;4964483;28;20691;-63
2021/09/02 06:02:38;;;;;;;14.02;6.60;;;;;;;14.68;82.43;98912.44;4963427;28;20039;-64
2021/09/02 06:05:04;;;;;;;14.20;6.57;;;;;;;14.99;81.00;98916.38;4964717;28;20041;-61
2021/09/02 06:07:29;;;;;;;10.27;6.80;;;;;;;14.61;83.45;98906.63;4963061;28;20039;-63
2021/09/02 06:09:55;;;;;;;10.55;6.60;;;;;;;14.40;83.94;98902.25;4960668;28;20094;-63
2021/09/02 06:12:20;;;;;;;16.35;7.03;;;;;;;15.23;80.88;98912.63;4961045;28;20063;-63
2021/09/02 06:14:45;;;;;;;13.70;6.80;;;;;;;15.06;81.39;98911.69;4962706;28;20692;-62
2021/09/02 06:17:11;;;;;;;11.75;6.85;;;;;;;15.25;81.81;98917.81;4963461;28;20567;-63
2021/09/02 06:19:36;;;;;;;10.10;6.45;;;;;;;15.32;82.91;98915.78;4965909;28;20035;-61
2021/09/02 06:22:01;;;;;;;13.32;6.55;;;;;;;15.22;83.17;98912.72;4962413;28;20511;-63
2021/09/02 06:24:27;;;;;;;12.50;6.45;;;;;;;15.56;81.44;98922.50;4966261;28;20022;-61
2021/09/02 06:26:52;;;;;;;13.05;6.32;;;;;;;15.81;81.49;98916.16;4963040;28;20492;-62
2021/09/02 06:29:17;;;;;;;9.77;6.50;;;;;;;16.08;80.13;98915.72;4961821;28;20035;-63
2021/09/02 06:31:43;;;;;;;13.23;6.63;;;;;;;16.68;77.67;98910.94;4965251;28;20148;-62
2021/09/02 06:34:08;;;;;;;11.85;6.60;;;;;;;16.94;75.81;98909.59;4962825;28;20030;-61
2021/09/02 06:36:34;;;;;;;12.00;6.55;;;;;;;17.08;76.90;98910.69;4964355;28;20049;-62
2021/09/02 06:38:59;;;;;;;13.13;7.20;;;;;;;17.12;76.50;98913.06;4962156;28;20105;-62
2021/09/02 06:41:25;;;;;;;14.57;6.90;;;;;;;17.40;75.76;98906.31;4962620;28;20065;-62
2021/09/02 06:43:50;;;;;;;10.85;6.97;;;;;;;18.20;72.50;98909.78;4958890;28;20151;-63
2021/09/02 06:46:15;;;;;;;13.45;6.55;;;;;;;19.66;67.32;98915.97;4966155;28;20073;-62
2021/09/02 06:48:40;;;;;;;9.18;5.82;;;;;;;22.59;59.39;98916.94;4962453;28;20492;-63
2021/09/02 06:51:06;;;;;;;11.50;5.65;;;;;;;23.20;56.55;98914.06;4962168;28;20439;-65
2021/09/02 06:53:31;;;;;;;9.73;6.25;;;;;;;22.92;56.04;98913.53;4960814;28;20043;-65
2021/09/02 06:55:56;;;;;;;10.90;6.03;;;;;;;23.54;54.73;98904.22;4961860;28;20066;-63
2021/09/02 06:58:22;;;;;;;14.35;6.25;;;;;;;24.11;53.00;98910.28;4961525;28;20151;-62
2021/09/02 07:00:47;;;;;;;10.43;6.43;;;;;;;23.58;53.14;98920.81;4961399;28;20046;-62
2021/09/02 07:03:13;;;;;;;11.48;5.93;;;;;;;26.21;48.36;98906.44;4961074;28;20495;-64
2021/09/02 07:05:38;;;;;;;10.70;6.72;;;;;;;25.01;50.68;98917.88;4961414;28;20102;-64
2021/09/02 07:08:03;;;;;;;11.23;6.28;;;;;;;26.54;47.71;98915.00;4960623;28;20034;-63
2021/09/02 07:10:29;;;;;;;10.07;6.18;;;;;;;26.54;47.30;98917.66;4960642;28;20063;-65
2021/09/02 07:12:54;;;;;;;9.48;6.20;;;;;;;28.97;42.61;98912.81;4961404;28;20039;-63
2021/09/02 07:15:20;;;;;;;10.18;5.97;;;;;;;29.20;41.78;98909.63;4961395;28;20027;-64
2021/09/02 07:17:45;;;;;;;13.85;5.97;;;;;;;27.70;42.40;98907.63;4961968;28;20519;-64
2021/09/02 07:20:11;;;;;;;9.35;5.72;;;;;;;27.98;43.10;98910.31;4960298;28;20023;-63
2021/09/02 07:22:37;;;;;;;9.30;6.20;;;;;;;24.99;47.73;98913.63;4958505;28;20129;-64
2021/09/02 07:25:03;;;;;;;9.45;5.70;;;;;;;29.79;40.23;98907.88;4960316;28;20051;-62
2021/09/02 07:27:28;;;;;;;10.20;6.35;;;;;;;28.37;42.24;98912.69;4961461;28;20035;-62
2021/09/02 07:29:54;;;;;;;11.77;6.35;;;;;;;27.25;45.32;98916.41;4960861;28;20160;-63
2021/09/02 07:32:19;;;;;;;8.43;5.43;;;;;;;29.27;41.36;98916.03;4960597;28;20035;-63
2021/09/02 07:34:45;;;;;;;11.38;5.68;;;;;;;31.31;37.43;98917.28;4962927;28;20038;-63
2021/09/02 07:37:10;;;;;;;10.73;6.00;;;;;;;30.65;38.19;98915.72;4962202;28;20085;-63
2021/09/02 07:39:37;;;;;;;9.43;5.60;;;;;;;30.06;38.92;98915.84;4961244;28;20452;-63
2021/09/02 07:42:06;;;;;;;10.88;5.47;;;;;;;29.42;40.10;98921.66;4961532;28;20043;-62
2021/09/02 07:44:31;;;;;;;8.43;5.43;;;;;;;29.42;40.56;98918.97;4963399;28;20573;-63
2021/09/02 07:46:56;;;;;;;9.65;5.07;;;;;;;30.56;38.53;98923.78;4964748;28;20048;-62
2021/09/02 07:49:22;;;;;;;10.73;5.88;;;;;;;29.19;40.62;98924.91;4961414;28;20434;-62
2021/09/02 07:51:47;;;;;;;9.00;5.60;;;;;;;28.92;41.78;98933.94;4961895;28;20034;-63
2021/09/02 07:54:13;;;;;;;9.00;5.65;;;;;;;28.94;39.59;98933.78;4960882;28;20117;-64
2021/09/02 07:56:38;;;;;;;9.27;5.30;;;;;;;29.64;39.03;98933.66;4959621;28;20147;-62
2021/09/02 07:59:04;;;;;;;10.63;5.35;;;;;;;29.02;40.94;98933.81;4960938;28;20022;-61
2021/09/02 08:01:29;;;;;;;9.18;5.38;;;;;;;29.69;39.17;98925.97;4963188;28;20030;-64
2021/09/02 08:03:54;;;;;;;9.27;5.35;;;;;;;29.84;38.27;98938.81;4961193;28;20144;-64
2021/09/02 08:06:20;;;;;;;9.77;5.70;;;;;;;28.16;40.61;98934.44;4959898;28;20039;-63
2021/09/02 08:08:45;;;;;;;8.63;5.75;;;;;;;27.72;41.35;98929.78;4961715;28;20049;-64
2021/09/02 08:11:11;;;;;;;9.02;5.40;;;;;;;29.74;39.12;98929.03;4961053;28;20477;-63
2021/09/02 08:13:36;;;;;;;9.32;5.30;;;;;;;30.93;37.29;98925.16;4959666;28;20030;-62
2021/09/02 08:16:02;;;;;;;7.70;4.70;;;;;;;32.54;35.26;98928.44;4960837;28;20037;-62
2021/09/02 08:18:27;;;;;;;8.85;5.28;;;;;;;29.68;39.40;98929.63;4960391;28;20042;-62
2021/09/02 08:20:53;;;;;;;8.57;5.45;;;;;;;30.30;38.40;98917.72;4962303;28;20045;-62
2021/09/02 08:23:18;;;;;;;9.65;5.57;;;;;;;29.92;38.24;98926.25;4962451;28;20627;-62
2021/09/02 08:25:44;;;;;;;10.15;5.80;;;;;;;29.09;40.93;98923.28;4959234;28;20622;-62
2021/09/02 08:28:09;;;;;;;9.85;5.63;;;;;;;30.87;37.05;98917.72;4963705;28;20030;-62
2021/09/02 08:30:35;;;;;;;8.00;5.32;;;;;;;30.60;38.04;98926.16;4961968;28;20080;-62
2021/09/02 08:33:00;;;;;;;9.63;5.07;;;;;;;31.81;35.93;98919.81;4962081;28;20032;-63
2021/09/02 08:35:32;;;;;;;8.73;5.20;;;;;;;33.00;34.21;98920.28;4962047;28;20114;-64
2021/09/02 08:38:01;;;;;;;9.48;5.43;;;;;;;30.49;37.36;98925.50;4962690;28;20033;-64
2021/09/02 08:40:29;;;;;;;8.02;4.85;;;;;;;31.74;36.52;98916.97;4962319;28;20031;-63
2021/09/02 08:42:55;;;;;;;7.75;4.65;;;;;;;33.18;33.57;98920.78;4962470;28;20043;-62
2021/09/02 08:45:25;;;;;;;8.43;5.13;;;;;;;31.05;37.44;98914.03;4962449;28;20029;-63
2021/09/02 08:47:51;;;;;;;11.20;5.10;;;;;;;30.62;38.21;98916.06;4961877;28;20042;-63
2021/09/02 08:50:20;;;;;;;7.65;5.03;;;;;;;30.33;37.06;98912.03;4959337;28;20039;-64
2021/09/02 08:52:45;;;;;;;8.13;5.07;;;;;;;31.12;36.89;98912.31;4961273;28;20056;-63
2021/09/02 08:55:11;;;;;;;10.68;5.32;;;;;;;30.52;37.27;98914.38;4961770;28;20038;-63
2021/09/02 08:57:36;;;;;;;9.63;4.90;;;;;;;31.97;36.03;98910.78;4963527;28;20416;-64
2021/09/02 09:00:03;;;;;;;12.23;5.40;;;;;;;32.64;34.72;98910.16;4964345;28;20030;-64
2021/09/02 09:02:31;;;;;;;6.97;4.35;;;;;;;33.84;32.37;98909.19;4960397;28;20035;-61
2021/09/02 09:05:06;;;;;;;8.45;4.72;;;;;;;32.04;34.88;98911.78;4962695;28;20031;-63
2021/09/02 09:07:37;;;;;;;7.53;4.75;;;;;;;32.31;35.20;98907.69;4961505;28;20045;-61
2021/09/02 09:10:09;;;;;;;6.50;4.53;;;;;;;33.15;34.54;98914.91;4963763;28;20030;-62
2021/09/02 09:12:37;;;;;;;7.63;4.93;;;;;;;32.23;35.79;98916.69;4963719;28;20316;-61
2021/09/02 09:15:05;;;;;;;8.20;4.95;;;;;;;30.86;38.09;98899.88;4961303;28;20051;-64
2021/09/02 09:17:31;;;;;;;9.00;4.60;;;;;;;34.48;31.54;98910.25;4959396;28;20035;-62
2021/09/02 09:19:57;;;;;;;8.25;4.57;;;;;;;32.58;34.88;98902.78;4960796;28;20035;-63
2021/09/02 09:22:27;;;;;;;7.57;4.32;;;;;;;31.00;36.46;98903.75;4962305;28;20664;-61
2021/09/02 09:24:58;;;;;;;7.38;5.00;;;;;;;30.28;37.48;98900.91;4964097;28;20026;-64
2021/09/02 09:27:48;;;;;;;;;;;;;;;30.72;36.99;98908.66;4963621;28;20034;-63
2021/09/02 09:30:18;;;;;;;9.48;4.97;;;;;;;33.01;34.29;98903.88;4963606;28;19914;-61
2021/09/02 09:32:48;;;;;;;7.07;4.38;;;;;;;32.10;36.28;98910.22;4964548;28;20027;-61
2021/09/02 09:35:18;;;;;;;6.07;4.63;;;;;;;31.16;36.50;98902.88;4962034;28;20635;-62
2021/09/02 09:37:44;;;;;;;10.18;4.70;;;;;;;31.50;36.25;98904.44;4963173;28;20540;-61
2021/09/02 09:40:10;;;;;;;8.60;5.03;;;;;;;31.24;36.42;98899.31;4963948;28;20027;-62
2021/09/02 09:42:36;;;;;;;7.53;4.78;;;;;;;32.31;36.78;98901.47;4965521;28;20042;-61
2021/09/02 09:45:01;;;;;;;6.97;4.35;;;;;;;32.51;35.66;98902.63;4966944;28;20023;-62
2021/09/02 09:47:33;;;;;;;10.70;4.60;;;;;;;32.29;33.92;98898.94;4963790;28;20145;-63
2021/09/02 09:50:00;;;;;;;6.18;4.22;;;;;;;33.46;33.08;98901.19;4964738;28;20094;-63
2021/09/02 09:52:35;;;;;;;8.68;4.30;;;;;;;32.10;35.59;98899.44;4962815;28;20141;-63
2021/09/02 09:55:05;;;;;;;6.28;4.32;;;;;;;31.21;36.33;98888.84;4963251;28;20027;-62
2021/09/02 09:57:31;;;;;;;6.78;4.28;;;;;;;31.21;35.51;98889.72;4962327;28;20416;-64
2021/09/02 10:00:04;;;;;;;7.47;4.40;;;;;;;29.70;39.69;98887.34;4962886;28;20085;-62
2021/09/02 10:02:29;;;;;;;7.90;4.65;;;;;;;30.82;37.56;98889.59;4962671;28;20046;-61
2021/09/02 10:04:56;;;;;;;8.13;4.90;;;;;;;30.90;36.76;98889.63;4961644;28;20023;-61
2021/09/02 10:07:24;;;;;;;8.13;3.95;;;;;;;31.58;35.55;98890.94;4960793;28;20135;-64
2021/09/02 10:09:53;;;;;;;7.78;4.72;;;;;;;31.54;35.30;98878.84;4964801;28;20030;-60
2021/09/02 10:12:21;;;;;;;5.97;4.30;;;;;;;32.69;33.99;98879.91;4962589;28;21013;-63
2021/09/02 10:14:48;;;;;;;6.32;4.20;;;;;;;31.32;36.45;98875.88;4961461;28;20520;-64
2021/09/02 10:17:13;;;;;;;7.25;4.20;;;;;;;31.61;35.76;98874.38;4962066;28;20059;-61
2021/09/02 10:19:39;;;;;;;7.93;4.70;;;;;;;31.57;34.74;98873.06;4962603;28;20065;-62
2021/09/02 10:22:05;;;;;;;8.10;4.10;;;;;;;32.31;33.76;98863.66;4961137;28;20102;-61
2021/09/02 10:24:36;;;;;;;6.75;4.43;;;;;;;31.44;34.97;98870.09;4961818;28;20069;-63
2021/09/02 10:27:23;;;;;;;7.35;4.43;;;;;;;30.83;35.65;98869.75;4962252;28;20542;-65
2021/09/02 10:29:50;;;;;;;6.03;4.47;;;;;;;31.01;34.93;98873.13;4959539;28;20139;-63
2021/09/02 10:32:29;;;;;;;7.28;4.30;;;;;;;29.83;36.77;98872.56;4960368;28;20817;-62
2021/09/02 10:35:20;;;;;;;5.38;4.15;;;;;;;30.57;36.09;98862.72;4960930;28;20097;-62
2021/09/02 10:37:45;;;;;;;5.68;3.75;;;;;;;32.05;34.18;98865.72;4959041;28;20645;-63
2021/09/02 10:40:16;;;;;;;5.35;3.83;;;;;;;32.41;32.94;98854.28;4961675;28;20030;-64
2021/09/02 10:42:47;;;;;;;6.00;4.05;;;;;;;30.94;35.87;98862.19;4960777;28;20035;-62
2021/09/02 10:45:25;;;;;;;5.90;4.20;;;;;;;30.29;36.60;98862.19;4963882;28;20641;-63
2021/09/02 10:47:51;;;;;;;7.05;4.32;;;;;;;29.38;37.95;98850.44;4962943;28;20085;-64
2021/09/02 10:50:21;;;;;;;6.15;4.30;;;;;;;29.65;39.20;98838.59;4961224;28;20110;-65
2021/09/02 10:52:46;;;;;;;6.55;3.95;;;;;;;31.19;35.30;98839.69;4960901;28;20022;-64
2021/09/02 10:55:33;;;;;;;6.55;4.50;;;;;;;30.09;36.59;98838.34;4960968;28;20030;-64
2021/09/02 10:58:01;;;;;;;6.40;3.95;;;;;;;29.97;36.32;98845.03;4962341;28;20109;-63
2021/09/02 11:00:44;;;;;;;5.57;3.75;;;;;;;32.05;33.52;98844.13;4960905;28;20042;-65
2021/09/02 11:03:17;;;;;;;10.23;4.07;;;;;;;29.09;36.51;98848.91;4961699;28;20121;-64
2021/09/02 11:05:55;;;;;;;7.35;4.28;;;;;;;29.92;35.83;98855.44;4958866;28;21250;-64
2021/09/02 11:08:34;;;;;;;7.60;4.20;;;;;;;28.76;37.74;98847.91;4963211;28;20081;-63
2021/09/02 11:11:13;;;;;;;5.63;4.03;;;;;;;28.39;38.23;98841.75;4962527;28;20093;-63
2021/09/02 11:13:43;;;;;;;5.93;3.70;;;;;;;30.22;35.92;98842.34;4963917;28;20066;-63
2021/09/02 11:16:14;;;;;;;7.15;3.80;;;;;;;30.68;35.39;98840.84;4961693;28;20097;-60
2021/09/02 11:18:52;;;;;;;7.72;3.42;;;;;;;30.08;36.20;98844.72;4963244;28;20027;-62
2021/09/02 11:21:23;;;;;;;7.13;3.95;;;;;;;29.40;36.03;98843.88;4954079;28;20109;-63
2021/09/02 11:23:56;;;;;;;5.45;3.75;;;;;;;29.03;37.12;98845.03;4962418;28;20037;-62
2021/09/02 11:26:30;;;;;;;5.65;3.80;;;;;;;30.01;37.05;98834.78;4960823;28;20045;-63